Scarborough, Trinidad And Tobago

9:05 PM AST on March 27, 2015 (GMT -0400)
Pigeon Point | | Change Station
CLOSE
Current Station
Personal Weather Station
Location: Crown Point, CROWN POINT
Elevation: 6 ft
Nearby Weather Stations

Elev 6 ft 11.17 °N, 60.84 °W | Updated 3 minutes ago

Light Rain
Light Rain
77.0 °F
Feels Like 78 °F
N
10.7
Wind Variable Wind from East
Gusts 10.7 mph

Today
High -- | Low -- °F
--% Chance of Precip.
Yesterday
High -- | Low -- °F
Precip. -- in
6:03 AM 6:14 PM
First Quarter, 57% visible
Pressure 30.01 in
Visibility 6.2 miles
Clouds Scattered Clouds 1600 ft
Heat Index 78 °F
Dew Point 73 °F
Humidity 87%
Rainfall 0.00 in
Snow Depth Not available.
UV 1.0 out of 12
Pollen Not available.
Air Quality Not available.
Flu Activity Not available.
METAR TTCP 280000Z 08013KT 9999 -RA SCT016 BNK040 25/23 Q1016 NOSIG

More Conditions Fewer Conditions

Pressure 30.01 in
Visibility 6.2 miles
Clouds Scattered Clouds 1600 ft
Heat Index 78 °F
Dew Point 73 °F
Humidity 87%
Rainfall 0.00 in
Snow Depth Not available.
UV 1.0 out of 12
Pollen Not available.
Air Quality Not available.
Flu Activity Not available.
METAR TTCP 280000Z 08013KT 9999 -RA SCT016 BNK040 25/23 Q1016 NOSIG

More Conditions Fewer Conditions

10-Day Weather Forecast

Almanac

Astronomy

Mar. 27, 2015 Rise Set
Actual Time
Civil Twilight
Nautical Twilight
Astronomical Twilight
Moon
Length of Visible Light
Length of Day
Tomorrow will be .
, % of the Moon is Illuminated

Today's Extremes

Country Highs Country Lows

Community

WunderPhotos

Upload Photos

1,808,901 photos uploaded!

WunderBlogs® & News

Nearby

Air Quality

  Air Quality AQ Index Pollutant
Not available.

Snow Depth

Station Depth Elevation

Earthquake Activity

City Distance Mag. Time & Date
Minimum magnitude displayed is 2.5.

Coastal Water Temperatures

Place Temperature

Stations

Nearby Weather Stations

Station Location Temp. Windchill Dew Point Humidity Wind Precip. Elev Updated Type